createdAt,value
2018-04-07T00:01:59.588Z,68.30
2018-04-07T00:04:27.792Z,68.10
2018-04-07T00:06:55.985Z,68.60
2018-04-07T00:09:24.920Z,68.70
2018-04-07T00:11:53.012Z,68.60
2018-04-07T00:14:21.226Z,68.80
2018-04-07T00:16:50.150Z,69.00
2018-04-07T00:19:19.109Z,69.40
2018-04-07T00:21:48.088Z,69.80
2018-04-07T00:24:17.098Z,70.10
2018-04-07T00:26:45.975Z,69.80
2018-04-07T00:29:14.880Z,70.00
2018-04-07T00:31:43.793Z,69.70
2018-04-07T00:34:11.913Z,69.50
2018-04-07T00:36:40.028Z,69.70
2018-04-07T00:39:08.274Z,70.20
2018-04-07T00:41:37.299Z,70.00
2018-04-07T00:44:05.428Z,70.00
2018-04-07T00:46:34.361Z,70.80
2018-04-07T00:49:02.505Z,71.30
2018-04-07T00:51:31.484Z,71.10
2018-04-07T00:54:00.379Z,71.40
2018-04-07T00:56:29.407Z,70.70
2018-04-07T00:58:57.531Z,70.70
2018-04-07T01:01:25.634Z,70.50
2018-04-07T01:03:53.758Z,70.20
2018-04-07T01:06:21.990Z,70.80
2018-04-07T01:08:50.091Z,71.20
2018-04-07T01:11:18.232Z,71.30
2018-04-07T01:13:46.404Z,71.60
2018-04-07T01:16:15.396Z,71.80
2018-04-07T01:18:44.282Z,71.80
2018-04-07T01:21:12.430Z,71.80
2018-04-07T01:23:41.448Z,72.30
2018-04-07T01:26:10.339Z,72.10
2018-04-07T01:28:38.473Z,72.00
2018-04-07T01:31:07.390Z,72.10
2018-04-07T01:33:35.518Z,72.10
2018-04-07T01:36:04.524Z,72.60
2018-04-07T01:38:33.503Z,72.90
2018-04-07T01:41:01.727Z,72.80
2018-04-07T01:43:29.825Z,72.90
2018-04-07T01:45:57.945Z,72.80
2018-04-07T01:48:26.102Z,72.80
2018-04-07T01:50:55.014Z,72.90
2018-04-07T01:53:23.166Z,72.90
2018-04-07T01:55:52.503Z,74.10
2018-04-07T01:58:20.610Z,73.50
2018-04-07T02:00:50.277Z,73.30
2018-04-07T02:03:19.226Z,72.60
2018-04-07T02:05:48.108Z,72.50
2018-04-07T02:08:16.232Z,72.40
2018-04-07T02:10:44.503Z,72.90
2018-04-07T02:13:13.492Z,72.70
2018-04-07T02:15:42.386Z,73.10
2018-04-07T02:18:10.466Z,73.10
2018-04-07T02:20:38.600Z,73.00
2018-04-07T02:23:06.717Z,73.20
2018-04-07T02:25:34.844Z,73.10
2018-04-07T02:28:02.973Z,73.40
2018-04-07T02:30:31.174Z,73.70
2018-04-07T02:33:00.109Z,73.90
2018-04-07T02:35:28.336Z,73.90
2018-04-07T02:37:56.448Z,74.60
2018-04-07T02:40:24.680Z,74.80
2018-04-07T02:42:53.659Z,74.80
2018-04-07T02:45:21.781Z,74.70
2018-04-07T02:47:49.951Z,74.80
2018-04-07T02:50:18.916Z,74.00
2018-04-07T02:52:47.941Z,74.20
2018-04-07T02:55:16.033Z,74.20
2018-04-07T02:57:44.253Z,74.20
2018-04-07T03:00:13.131Z,74.70
2018-04-07T03:02:42.124Z,75.00
2018-04-07T03:05:11.046Z,75.10
2018-04-07T03:07:40.006Z,75.40
2018-04-07T03:10:08.909Z,76.10
2018-04-07T03:12:37.772Z,76.20
2018-04-07T03:15:06.733Z,76.10
2018-04-07T03:17:35.080Z,76.10
2018-04-07T03:20:03.970Z,75.90
2018-04-07T03:22:32.858Z,75.70
2018-04-07T03:25:00.977Z,75.70
2018-04-07T03:27:29.204Z,75.60
2018-04-07T03:29:58.148Z,74.80
2018-04-07T03:32:27.051Z,75.50
2018-04-07T03:34:55.973Z,74.80
2018-04-07T03:37:24.823Z,75.20
2018-04-07T03:39:53.851Z,75.40
2018-04-07T03:42:22.713Z,75.40
2018-04-07T03:44:51.701Z,75.60
2018-04-07T03:47:20.574Z,76.30
2018-04-07T03:49:49.511Z,76.10
2018-04-07T03:52:18.443Z,76.00
2018-04-07T03:54:46.552Z,76.00
2018-04-07T03:57:14.683Z,76.00
2018-04-07T03:59:42.821Z,76.00
2018-04-07T04:02:10.987Z,76.10
2018-04-07T04:04:39.878Z,75.50
2018-04-07T04:07:08.734Z,75.50
2018-04-07T04:09:37.655Z,75.70
2018-04-07T04:12:05.749Z,75.70
2018-04-07T04:14:33.928Z,76.00
2018-04-07T04:17:02.068Z,76.00
2018-04-07T04:19:30.929Z,77.00
2018-04-07T04:21:59.946Z,77.20
2018-04-07T04:24:28.806Z,77.10
2018-04-07T04:26:57.757Z,77.30
2018-04-07T04:29:25.999Z,77.10
2018-04-07T04:31:54.125Z,77.30
2018-04-07T04:34:23.061Z,77.30
2018-04-07T04:36:51.949Z,77.40
2018-04-07T04:39:20.821Z,77.80
2018-04-07T04:41:49.112Z,77.80
2018-04-07T04:44:17.304Z,78.00
2018-04-07T04:46:45.412Z,78.40
2018-04-07T04:49:14.304Z,78.20
2018-04-07T04:51:43.233Z,77.90
2018-04-07T04:54:12.123Z,77.40
2018-04-07T04:56:41.084Z,76.90
2018-04-07T04:59:10.074Z,77.30
2018-04-07T05:01:38.957Z,77.50
2018-04-07T05:04:07.851Z,77.10
2018-04-07T05:06:36.833Z,77.20
2018-04-07T05:09:05.832Z,76.60
2018-04-07T05:11:34.037Z,77.00
2018-04-07T05:14:03.039Z,77.10
2018-04-07T05:16:31.140Z,77.10
2018-04-07T05:18:59.273Z,76.90
2018-04-07T05:21:27.400Z,76.90
2018-04-07T05:23:56.336Z,76.70
2018-04-07T05:26:25.288Z,76.50
2018-04-07T05:28:54.223Z,76.50
2018-04-07T05:31:22.312Z,76.50
2018-04-07T05:33:50.458Z,77.60
2018-04-07T05:36:18.731Z,77.70
2018-04-07T05:38:47.726Z,77.90
2018-04-07T05:41:15.860Z,77.30
2018-04-07T05:43:44.739Z,76.10
2018-04-07T05:46:13.782Z,75.70
2018-04-07T05:48:41.913Z,75.60
2018-04-07T05:51:10.830Z,75.60
2018-04-07T05:53:39.110Z,75.60
2018-04-07T05:56:07.285Z,75.70
2018-04-07T05:58:35.454Z,75.20
2018-04-07T06:01:03.566Z,75.20
2018-04-07T06:03:31.694Z,74.80
2018-04-07T06:05:59.867Z,74.90
2018-04-07T06:08:27.980Z,74.30
2018-04-07T06:10:56.215Z,74.70
2018-04-07T06:13:24.337Z,74.40
2018-04-07T06:15:54.067Z,73.20
2018-04-07T06:18:22.981Z,73.50
2018-04-07T06:20:51.112Z,73.50
2018-04-07T06:23:20.145Z,72.80
2018-04-07T06:25:48.316Z,72.80
2018-04-07T06:28:17.310Z,71.30
2018-04-07T06:30:45.422Z,71.30
2018-04-07T06:33:13.664Z,71.40
2018-04-07T06:35:41.824Z,71.20
2018-04-07T06:38:10.685Z,71.00
2018-04-07T06:40:39.704Z,70.00
2018-04-07T06:43:07.835Z,69.90
2018-04-07T06:45:36.764Z,68.70
2018-04-07T06:48:05.005Z,68.60
2018-04-07T06:50:33.117Z,69.10
2018-04-07T06:53:01.371Z,68.00
2018-04-07T06:55:30.374Z,68.10
2018-04-07T06:57:59.245Z,67.80
2018-04-07T07:00:27.435Z,67.80
2018-04-07T07:02:55.608Z,67.30
2018-04-07T07:05:23.725Z,67.50
2018-04-07T07:07:51.961Z,66.60
2018-04-07T07:10:20.134Z,66.10
2018-04-07T07:12:48.298Z,66.30
2018-04-07T07:15:17.286Z,65.00
2018-04-07T07:17:46.234Z,64.90
2018-04-07T07:20:15.172Z,64.80
2018-04-07T07:22:43.274Z,64.80
2018-04-07T07:25:11.414Z,64.10
2018-04-07T07:27:39.526Z,63.90
2018-04-07T07:30:08.410Z,63.50
2018-04-07T07:32:36.562Z,63.40
2018-04-07T07:35:04.721Z,63.70
2018-04-07T07:37:32.836Z,62.90
2018-04-07T07:40:00.965Z,62.60
2018-04-07T07:42:29.127Z,62.10
2018-04-07T07:44:57.260Z,62.10
2018-04-07T07:47:26.164Z,61.90
2018-04-07T07:49:55.050Z,62.00
2018-04-07T07:52:23.961Z,61.50
2018-04-07T07:54:52.097Z,61.50
2018-04-07T07:57:21.129Z,60.30
2018-04-07T07:59:49.982Z,59.90
2018-04-07T08:02:18.897Z,59.30
2018-04-07T08:04:47.898Z,59.00
2018-04-07T08:07:16.754Z,60.10
2018-04-07T08:09:46.601Z,59.60
2018-04-07T08:12:14.764Z,59.60
2018-04-07T08:14:42.905Z,58.70
2018-04-07T08:17:11.134Z,57.30
2018-04-07T08:19:39.236Z,57.80
2018-04-07T08:22:07.457Z,58.20
2018-04-07T08:24:36.437Z,55.60
2018-04-07T08:27:04.616Z,55.60
2018-04-07T08:29:33.493Z,55.70
2018-04-07T08:32:01.679Z,55.60
2018-04-07T08:34:29.856Z,55.30
2018-04-07T08:36:57.957Z,56.00
2018-04-07T08:39:26.257Z,55.40
2018-04-07T08:41:54.316Z,54.90
2018-04-07T08:44:22.520Z,54.70
2018-04-07T08:46:50.715Z,54.10
2018-04-07T08:49:18.897Z,53.50
2018-04-07T08:51:47.036Z,54.80
2018-04-07T08:54:15.192Z,53.50
2018-04-07T08:56:44.094Z,53.00
2018-04-07T08:59:13.010Z,51.80
2018-04-07T09:01:41.183Z,51.70
2018-04-07T09:04:09.352Z,52.90
2018-04-07T09:06:37.483Z,54.10
2018-04-07T09:09:05.673Z,51.60
2018-04-07T09:11:33.871Z,51.60
2018-04-07T09:14:01.968Z,51.60
2018-04-07T09:16:30.192Z,50.60
2018-04-07T09:18:58.320Z,50.10
2018-04-07T09:21:26.460Z,50.40
2018-04-07T09:23:54.729Z,50.10
2018-04-07T09:26:22.860Z,49.10
2018-04-07T09:28:51.046Z,48.20
2018-04-07T09:31:25.143Z,51.20
2018-04-07T09:33:54.084Z,49.60
2018-04-07T09:36:22.201Z,49.50
2018-04-07T09:38:50.344Z,49.20
2018-04-07T09:41:18.577Z,48.40
2018-04-07T09:43:47.489Z,45.90
2018-04-07T09:46:15.601Z,45.80
2018-04-07T09:48:43.826Z,47.80
2018-04-07T09:51:11.940Z,45.00
2018-04-07T09:53:40.078Z,44.80
2018-04-07T09:56:08.203Z,43.70
2018-04-07T09:58:37.157Z,44.00
2018-04-07T10:01:05.300Z,44.00
2018-04-07T10:03:33.474Z,43.00
2018-04-07T10:06:01.603Z,44.20
2018-04-07T10:08:29.720Z,44.10
2018-04-07T10:10:57.888Z,42.20
2018-04-07T10:13:26.032Z,42.80
2018-04-07T10:15:54.950Z,44.70
2018-04-07T10:18:23.124Z,44.70
2018-04-07T10:20:51.294Z,43.00
2018-04-07T10:23:19.464Z,43.70
2018-04-07T10:25:47.599Z,40.60
2018-04-07T10:28:15.842Z,39.10
2018-04-07T10:30:43.982Z,40.70
2018-04-07T10:33:12.076Z,41.20
2018-04-07T10:35:40.331Z,42.70
2018-04-07T10:38:08.500Z,39.80
2018-04-07T10:40:37.518Z,39.50
2018-04-07T10:43:05.680Z,39.50
2018-04-07T10:45:33.786Z,36.60
2018-04-07T10:48:01.965Z,37.40
2018-04-07T10:50:30.128Z,38.30
2018-04-07T10:52:58.350Z,38.30
2018-04-07T10:55:27.345Z,37.90
2018-04-07T10:57:55.448Z,37.10
2018-04-07T11:00:23.691Z,35.50
2018-04-07T11:02:51.801Z,36.50
2018-04-07T11:05:20.043Z,35.70
2018-04-07T11:07:48.173Z,38.10
2018-04-07T11:10:17.092Z,36.40
2018-04-07T11:12:45.206Z,36.40
2018-04-07T11:15:13.341Z,35.80
2018-04-07T11:17:41.508Z,33.20
2018-04-07T11:20:09.669Z,36.10
2018-04-07T11:22:37.855Z,34.90
2018-04-07T11:25:05.996Z,35.10
2018-04-07T11:27:34.913Z,34.30
2018-04-07T11:30:03.776Z,31.30
2018-04-07T11:32:32.671Z,29.30
2018-04-07T11:35:01.630Z,30.60
2018-04-07T11:37:29.727Z,30.60
2018-04-07T11:39:58.743Z,29.90
2018-04-07T11:42:27.703Z,30.20
2018-04-07T11:44:56.707Z,30.50
2018-04-07T11:47:24.846Z,30.50
2018-04-07T11:49:52.985Z,29.30
2018-04-07T11:52:21.142Z,29.30
2018-04-07T11:54:50.042Z,29.30
2018-04-07T11:57:18.201Z,29.30
2018-04-07T11:59:47.181Z,28.60
2018-04-07T12:02:15.373Z,28.60
2018-04-07T12:04:43.475Z,28.30
2018-04-07T12:07:11.622Z,28.10
2018-04-07T12:09:39.733Z,28.20
2018-04-07T12:12:08.641Z,31.30
2018-04-07T12:14:37.564Z,28.10
2018-04-07T12:17:05.813Z,28.10
2018-04-07T12:19:34.720Z,26.80
2018-04-07T12:22:02.845Z,26.80
2018-04-07T12:24:31.066Z,26.30
2018-04-07T12:26:59.237Z,26.70
2018-04-07T12:29:28.130Z,28.50
2018-04-07T12:31:56.305Z,28.50
2018-04-07T12:34:24.401Z,30.90
2018-04-07T12:36:52.644Z,27.70
2018-04-07T12:39:21.536Z,26.00
2018-04-07T12:41:49.714Z,25.90
2018-04-07T12:44:17.833Z,28.50
2018-04-07T12:46:45.946Z,28.90
2018-04-07T12:49:14.122Z,26.60
2018-04-07T12:51:42.979Z,25.80
2018-04-07T12:54:11.968Z,26.80
2018-04-07T12:56:40.848Z,27.30
2018-04-07T12:59:09.064Z,27.20
2018-04-07T13:01:38.055Z,28.10
2018-04-07T13:04:06.941Z,26.80
2018-04-07T13:06:35.901Z,27.10
2018-04-07T13:09:05.848Z,27.50
2018-04-07T13:11:34.838Z,26.70
2018-04-07T13:14:03.737Z,26.20
2018-04-07T13:16:31.861Z,26.30
2018-04-07T13:19:00.799Z,25.60
2018-04-07T13:21:28.962Z,25.60
2018-04-07T13:23:57.833Z,26.60
2018-04-07T13:26:26.741Z,25.60
2018-04-07T13:28:55.734Z,25.20
2018-04-07T13:31:24.725Z,25.80
2018-04-07T13:33:52.850Z,25.80
2018-04-07T13:36:21.783Z,26.00
2018-04-07T13:38:50.676Z,25.60
2018-04-07T13:41:18.848Z,25.60
2018-04-07T13:43:46.974Z,25.30
2018-04-07T13:46:15.193Z,24.60
2018-04-07T13:48:43.293Z,23.60
2018-04-07T13:51:11.442Z,24.40
2018-04-07T13:53:39.570Z,23.40
2018-04-07T13:56:08.457Z,19.80
2018-04-07T13:58:37.387Z,19.10
2018-04-07T14:01:05.558Z,19.00
2018-04-07T14:03:33.715Z,18.50
2018-04-07T14:06:02.618Z,19.60
2018-04-07T14:08:31.507Z,19.20
2018-04-07T14:10:59.618Z,19.10
2018-04-07T14:13:27.749Z,18.10
2018-04-07T14:15:55.927Z,19.80
2018-04-07T14:18:24.044Z,19.40
2018-04-07T14:20:52.172Z,18.90
2018-04-07T14:23:20.402Z,18.50
2018-04-07T14:25:49.300Z,18.30
2018-04-07T14:28:18.320Z,18.10
2018-04-07T14:30:47.289Z,18.10
2018-04-07T14:33:15.432Z,18.10
2018-04-07T14:35:43.655Z,17.60
2018-04-07T14:38:12.523Z,17.30
2018-04-07T14:40:41.434Z,17.40
2018-04-07T14:43:10.315Z,17.20
2018-04-07T14:45:38.565Z,17.20
2018-04-07T14:48:07.488Z,17.90
2018-04-07T14:50:36.484Z,17.70
2018-04-07T14:53:04.650Z,17.60
2018-04-07T14:55:33.537Z,17.20
2018-04-07T14:58:01.685Z,17.10
2018-04-07T15:00:30.704Z,17.60
2018-04-07T15:02:59.653Z,17.20
2018-04-07T15:05:29.478Z,16.90
2018-04-07T15:07:58.399Z,17.10
2018-04-07T15:10:26.569Z,17.10
2018-04-07T15:12:54.702Z,16.80
2018-04-07T15:15:23.624Z,17.10
2018-04-07T15:17:51.739Z,17.10
2018-04-07T15:20:19.975Z,16.90
2018-04-07T15:22:48.147Z,16.90
2018-04-07T15:25:17.140Z,16.90
2018-04-07T15:27:46.029Z,16.80
2018-04-07T15:30:14.918Z,16.90
2018-04-07T15:32:43.892Z,17.00
2018-04-07T15:35:12.081Z,17.00
2018-04-07T15:37:40.983Z,16.70
2018-04-07T15:40:09.110Z,16.70
2018-04-07T15:42:38.144Z,16.50
2018-04-07T15:45:06.269Z,16.40
2018-04-07T15:47:35.263Z,16.30
2018-04-07T15:50:04.290Z,16.40
2018-04-07T15:52:32.462Z,16.30
2018-04-07T15:55:00.637Z,16.50
2018-04-07T15:57:29.610Z,16.60
2018-04-07T15:59:58.524Z,16.60
2018-04-07T16:02:26.642Z,16.60
2018-04-07T16:04:55.544Z,16.60
2018-04-07T16:07:24.469Z,16.70
2018-04-07T16:09:52.642Z,16.70
2018-04-07T16:12:20.817Z,16.30
2018-04-07T16:14:49.002Z,16.50
2018-04-07T16:17:19.215Z,16.40
2018-04-07T16:19:47.340Z,17.00
2018-04-07T16:22:16.345Z,17.40
2018-04-07T16:24:44.477Z,17.30
2018-04-07T16:27:12.605Z,18.00
2018-04-07T16:29:40.795Z,19.70
2018-04-07T16:32:08.960Z,20.10
2018-04-07T16:34:37.085Z,21.50
2018-04-07T16:37:06.025Z,22.70
2018-04-07T16:39:34.117Z,22.60
2018-04-07T16:42:02.257Z,23.50
2018-04-07T16:44:30.366Z,24.30
2018-04-07T16:46:58.608Z,25.10
2018-04-07T16:49:26.766Z,25.70
2018-04-07T16:51:55.672Z,26.90
2018-04-07T16:54:23.844Z,26.90
2018-04-07T16:56:52.011Z,26.40
2018-04-07T16:59:20.898Z,26.80
2018-04-07T17:01:49.073Z,26.80
2018-04-07T17:04:18.071Z,27.40
2018-04-07T17:06:46.242Z,27.30
2018-04-07T17:09:14.380Z,27.30
2018-04-07T17:11:43.303Z,27.50
2018-04-07T17:14:11.454Z,27.50
2018-04-07T17:16:40.360Z,28.40
2018-04-07T17:19:08.497Z,28.40
2018-04-07T17:21:37.523Z,28.70
2018-04-07T17:24:06.379Z,29.30
2018-04-07T17:26:35.315Z,29.60
2018-04-07T17:29:03.452Z,29.50
2018-04-07T17:31:32.362Z,29.70
2018-04-07T17:34:01.223Z,29.00
2018-04-07T17:36:30.247Z,29.90
2018-04-07T17:38:58.530Z,29.80
2018-04-07T17:41:26.647Z,29.00
2018-04-07T17:43:56.299Z,29.40
2018-04-07T17:46:24.482Z,29.40
2018-04-07T17:48:52.637Z,29.70
2018-04-07T17:51:21.532Z,30.40
2018-04-07T17:53:49.650Z,30.30
2018-04-07T17:56:17.786Z,31.60
2018-04-07T17:58:45.950Z,31.20
2018-04-07T18:01:14.118Z,31.20
2018-04-07T18:03:42.291Z,31.10
2018-04-07T18:06:11.215Z,30.80
2018-04-07T18:08:39.327Z,30.80
2018-04-07T18:11:08.343Z,31.10
2018-04-07T18:13:37.212Z,31.60
2018-04-07T18:16:05.399Z,31.50
2018-04-07T18:18:33.557Z,31.90
2018-04-07T18:21:02.450Z,31.90
2018-04-07T18:23:30.645Z,31.70
2018-04-07T18:25:58.917Z,32.30
2018-04-07T18:28:27.037Z,33.90
2018-04-07T18:30:55.946Z,34.50
2018-04-07T18:33:24.866Z,35.20
2018-04-07T18:35:53.036Z,35.20
2018-04-07T18:38:22.036Z,36.00
2018-04-07T18:40:50.144Z,35.90
2018-04-07T18:43:18.294Z,36.20
2018-04-07T18:45:46.431Z,36.90
2018-04-07T18:48:14.577Z,37.60
2018-04-07T18:50:42.787Z,38.30
2018-04-07T18:53:10.928Z,38.30
2018-04-07T18:55:39.849Z,39.30
2018-04-07T18:58:08.020Z,39.20
2018-04-07T19:00:36.200Z,39.50
2018-04-07T19:03:04.347Z,40.00
2018-04-07T19:05:33.285Z,40.50
2018-04-07T19:08:01.417Z,40.50
2018-04-07T19:10:29.598Z,41.20
2018-04-07T19:12:57.745Z,41.30
2018-04-07T19:15:26.678Z,41.70
2018-04-07T19:17:54.819Z,41.60
2018-04-07T19:20:22.961Z,41.70
2018-04-07T19:22:51.166Z,42.20
2018-04-07T19:25:20.072Z,43.40
2018-04-07T19:27:48.220Z,43.30
2018-04-07T19:30:16.382Z,44.90
2018-04-07T19:32:45.310Z,45.70
2018-04-07T19:35:13.452Z,45.50
2018-04-07T19:37:42.386Z,45.20
2018-04-07T19:40:10.542Z,45.20
2018-04-07T19:42:38.673Z,45.40
2018-04-07T19:45:07.603Z,46.60
2018-04-07T19:47:35.801Z,46.60
2018-04-07T19:50:04.054Z,46.90
2018-04-07T19:52:32.194Z,47.30
2018-04-07T19:55:00.368Z,47.70
2018-04-07T19:57:29.379Z,47.90
2018-04-07T19:59:57.504Z,47.90
2018-04-07T20:02:26.518Z,48.20
2018-04-07T20:04:54.694Z,47.90
2018-04-07T20:07:23.706Z,47.00
2018-04-07T20:09:51.829Z,47.00
2018-04-07T20:12:20.869Z,46.50
2018-04-07T20:14:49.017Z,46.50
2018-04-07T20:17:17.932Z,47.10
2018-04-07T20:19:46.100Z,47.10
2018-04-07T20:22:14.229Z,47.60
2018-04-07T20:24:43.131Z,48.40
2018-04-07T20:27:12.070Z,48.50
2018-04-07T20:29:40.330Z,48.40
2018-04-07T20:32:08.468Z,48.90
2018-04-07T20:34:37.404Z,49.40
2018-04-07T20:37:05.570Z,49.30
2018-04-07T20:39:33.711Z,49.40
2018-04-07T20:42:13.654Z,49.10
2018-04-07T20:44:42.551Z,50.10
2018-04-07T20:47:10.693Z,50.00
2018-04-07T20:49:38.884Z,51.20
2018-04-07T20:52:07.785Z,52.20
2018-04-07T20:54:35.959Z,52.10
2018-04-07T20:57:04.104Z,51.20
2018-04-07T20:59:33.077Z,53.70
2018-04-07T21:02:01.221Z,53.70
2018-04-07T21:04:29.364Z,54.40
2018-04-07T21:06:58.266Z,54.80
2018-04-07T21:09:26.422Z,54.80
2018-04-07T21:11:54.615Z,55.20
2018-04-07T21:14:22.896Z,55.60
2018-04-07T21:16:51.055Z,55.60
2018-04-07T21:19:19.350Z,55.70
2018-04-07T21:21:47.467Z,55.70
2018-04-07T21:24:16.506Z,55.60
2018-04-07T21:26:44.646Z,55.60
2018-04-07T21:29:13.564Z,55.70
2018-04-07T21:31:41.693Z,55.60
2018-04-07T21:34:10.620Z,56.30
2018-04-07T21:36:38.813Z,56.30
2018-04-07T21:39:07.069Z,56.60
2018-04-07T21:41:35.200Z,56.30
2018-04-07T21:44:04.119Z,56.30
2018-04-07T21:46:32.307Z,56.20
2018-04-07T21:49:00.483Z,56.80
2018-04-07T21:51:28.586Z,57.10
2018-04-07T21:53:57.540Z,57.10
2018-04-07T21:56:25.665Z,57.10
2018-04-07T21:58:53.853Z,57.00
2018-04-07T22:01:22.772Z,57.50
2018-04-07T22:03:50.913Z,57.30
2018-04-07T22:06:19.830Z,57.60
2018-04-07T22:08:47.999Z,57.60
2018-04-07T22:11:16.144Z,57.90
2018-04-07T22:13:44.353Z,58.60
2018-04-07T22:16:12.523Z,58.50
2018-04-07T22:18:40.657Z,58.60
2018-04-07T22:21:09.578Z,59.50
2018-04-07T22:23:37.820Z,59.10
2018-04-07T22:26:06.712Z,59.30
2018-04-07T22:28:35.739Z,59.70
2018-04-07T22:31:03.912Z,59.60
2018-04-07T22:33:32.023Z,60.30
2018-04-07T22:36:00.187Z,61.70
2018-04-07T22:38:28.280Z,62.20
2018-04-07T22:40:56.500Z,62.40
2018-04-07T22:43:24.593Z,62.70
2018-04-07T22:45:52.739Z,62.20
2018-04-07T22:48:20.913Z,61.60
2018-04-07T22:50:49.196Z,62.80
2018-04-07T22:53:17.366Z,63.10
2018-04-07T22:55:45.473Z,63.20
2018-04-07T22:58:13.613Z,63.30
2018-04-07T23:00:41.752Z,63.60
2018-04-07T23:03:10.742Z,64.10
2018-04-07T23:05:39.764Z,64.00
2018-04-07T23:08:07.873Z,63.90
2018-04-07T23:10:36.112Z,64.50
2018-04-07T23:13:04.232Z,64.30
2018-04-07T23:15:33.161Z,64.80
2018-04-07T23:18:01.272Z,64.80
2018-04-07T23:20:30.349Z,65.20
2018-04-07T23:22:58.475Z,65.50
2018-04-07T23:25:26.612Z,66.60
2018-04-07T23:27:54.754Z,66.30
2018-04-07T23:30:23.116Z,67.20
2018-04-07T23:32:51.235Z,67.30
2018-04-07T23:35:19.473Z,68.00
2018-04-07T23:37:47.634Z,68.40
2018-04-07T23:40:15.739Z,68.40
2018-04-07T23:42:44.072Z,68.20
2018-04-07T23:45:12.260Z,68.00
2018-04-07T23:47:40.428Z,67.70
2018-04-07T23:50:08.598Z,68.10
2018-04-07T23:52:36.711Z,67.90
2018-04-07T23:55:04.853Z,68.40
2018-04-07T23:57:32.980Z,67.60
